sensor_id;sensor_type;location;lat;lon;timestamp;P1;durP1;ratioP1;P2;durP2;ratioP2
10277;SDS011;5184;51.376;7.148;2023-04-01T00:00:27;5.73;;;2.20;;
10277;SDS011;5184;51.376;7.148;2023-04-01T00:02:53;2.93;;;1.60;;
10277;SDS011;5184;51.376;7.148;2023-04-01T00:05:21;2.90;;;1.60;;
10277;SDS011;5184;51.376;7.148;2023-04-01T00:07:49;5.23;;;1.80;;
10277;SDS011;5184;51.376;7.148;2023-04-01T00:10:16;5.30;;;1.70;;
10277;SDS011;5184;51.376;7.148;2023-04-01T00:12:42;4.30;;;2.20;;
10277;SDS011;5184;51.376;7.148;2023-04-01T00:15:10;3.40;;;2.10;;
10277;SDS011;5184;51.376;7.148;2023-04-01T00:17:35;3.40;;;1.90;;
10277;SDS011;5184;51.376;7.148;2023-04-01T00:20:03;5.20;;;2.00;;
10277;SDS011;5184;51.376;7.148;2023-04-01T00:22:29;3.17;;;2.10;;
10277;SDS011;5184;51.376;7.148;2023-04-01T00:24:56;4.03;;;1.90;;
10277;SDS011;5184;51.376;7.148;2023-04-01T00:27:23;3.13;;;2.13;;
10277;SDS011;5184;51.376;7.148;2023-04-01T00:29:49;4.73;;;2.00;;
10277;SDS011;5184;51.376;7.148;2023-04-01T00:32:17;5.47;;;2.10;;
10277;SDS011;5184;51.376;7.148;2023-04-01T00:34:44;2.73;;;1.70;;
10277;SDS011;5184;51.376;7.148;2023-04-01T00:37:11;3.13;;;1.83;;
10277;SDS011;5184;51.376;7.148;2023-04-01T00:39:37;3.30;;;1.70;;
10277;SDS011;5184;51.376;7.148;2023-04-01T00:42:04;3.30;;;1.93;;
10277;SDS011;5184;51.376;7.148;2023-04-01T00:44:31;4.33;;;1.80;;
10277;SDS011;5184;51.376;7.148;2023-04-01T00:46:57;3.07;;;1.70;;
10277;SDS011;5184;51.376;7.148;2023-04-01T00:49:25;4.47;;;1.97;;
10277;SDS011;5184;51.376;7.148;2023-04-01T00:51:52;2.80;;;1.50;;
10277;SDS011;5184;51.376;7.148;2023-04-01T00:54:19;2.30;;;1.83;;
10277;SDS011;5184;51.376;7.148;2023-04-01T00:56:49;2.90;;;1.70;;
10277;SDS011;5184;51.376;7.148;2023-04-01T00:59:17;4.40;;;2.10;;
10277;SDS011;5184;51.376;7.148;2023-04-01T01:01:42;2.33;;;1.77;;
10277;SDS011;5184;51.376;7.148;2023-04-01T01:04:29;2.63;;;1.90;;
10277;SDS011;5184;51.376;7.148;2023-04-01T01:06:57;3.73;;;1.77;;
10277;SDS011;5184;51.376;7.148;2023-04-01T01:09:39;1.97;;;1.77;;
10277;SDS011;5184;51.376;7.148;2023-04-01T01:12:07;3.47;;;1.90;;
10277;SDS011;5184;51.376;7.148;2023-04-01T01:14:41;3.97;;;1.80;;
10277;SDS011;5184;51.376;7.148;2023-04-01T01:17:22;3.23;;;1.57;;
10277;SDS011;5184;51.376;7.148;2023-04-01T01:19:49;4.30;;;2.37;;
10277;SDS011;5184;51.376;7.148;2023-04-01T01:22:19;1.90;;;1.70;;
10277;SDS011;5184;51.376;7.148;2023-04-01T01:24:50;2.80;;;1.77;;
10277;SDS011;5184;51.376;7.148;2023-04-01T01:27:16;3.77;;;1.73;;
10277;SDS011;5184;51.376;7.148;2023-04-01T01:29:53;3.33;;;1.87;;
10277;SDS011;5184;51.376;7.148;2023-04-01T01:35:20;5.17;;;2.20;;
10277;SDS011;5184;51.376;7.148;2023-04-01T01:38:04;4.40;;;1.60;;
10277;SDS011;5184;51.376;7.148;2023-04-01T01:40:31;2.37;;;1.40;;
10277;SDS011;5184;51.376;7.148;2023-04-01T01:42:58;3.23;;;1.43;;
10277;SDS011;5184;51.376;7.148;2023-04-01T01:45:23;3.83;;;1.70;;
10277;SDS011;5184;51.376;7.148;2023-04-01T01:47:50;2.33;;;1.43;;
10277;SDS011;5184;51.376;7.148;2023-04-01T01:50:17;3.77;;;1.70;;
10277;SDS011;5184;51.376;7.148;2023-04-01T01:52:43;2.80;;;1.60;;
10277;SDS011;5184;51.376;7.148;2023-04-01T01:57:48;3.00;;;1.73;;
10277;SDS011;5184;51.376;7.148;2023-04-01T02:02:54;3.03;;;1.57;;
10277;SDS011;5184;51.376;7.148;2023-04-01T02:05:21;4.03;;;1.83;;
10277;SDS011;5184;51.376;7.148;2023-04-01T02:07:48;2.77;;;2.07;;
10277;SDS011;5184;51.376;7.148;2023-04-01T02:10:14;3.70;;;2.07;;
10277;SDS011;5184;51.376;7.148;2023-04-01T02:12:41;4.07;;;1.63;;
10277;SDS011;5184;51.376;7.148;2023-04-01T02:15:08;2.20;;;2.00;;
10277;SDS011;5184;51.376;7.148;2023-04-01T02:17:37;1.80;;;1.60;;
10277;SDS011;5184;51.376;7.148;2023-04-01T02:20:04;4.50;;;2.13;;
10277;SDS011;5184;51.376;7.148;2023-04-01T02:22:34;3.37;;;2.40;;
10277;SDS011;5184;51.376;7.148;2023-04-01T02:25:03;3.13;;;2.03;;
10277;SDS011;5184;51.376;7.148;2023-04-01T02:27:28;2.30;;;1.77;;
10277;SDS011;5184;51.376;7.148;2023-04-01T02:29:56;1.80;;;1.33;;
10277;SDS011;5184;51.376;7.148;2023-04-01T02:32:23;3.13;;;1.90;;
10277;SDS011;5184;51.376;7.148;2023-04-01T02:34:51;2.40;;;1.50;;
10277;SDS011;5184;51.376;7.148;2023-04-01T02:37:18;4.30;;;1.80;;
10277;SDS011;5184;51.376;7.148;2023-04-01T02:39:45;1.73;;;1.40;;
10277;SDS011;5184;51.376;7.148;2023-04-01T02:42:13;4.00;;;1.53;;
10277;SDS011;5184;51.376;7.148;2023-04-01T02:44:40;2.57;;;1.40;;
10277;SDS011;5184;51.376;7.148;2023-04-01T02:47:07;1.47;;;1.37;;
10277;SDS011;5184;51.376;7.148;2023-04-01T02:49:34;1.07;;;1.00;;
10277;SDS011;5184;51.376;7.148;2023-04-01T02:52:00;1.80;;;1.20;;
10277;SDS011;5184;51.376;7.148;2023-04-01T02:54:27;3.07;;;0.93;;
10277;SDS011;5184;51.376;7.148;2023-04-01T02:56:54;1.60;;;1.10;;
10277;SDS011;5184;51.376;7.148;2023-04-01T02:59:20;1.30;;;1.10;;
10277;SDS011;5184;51.376;7.148;2023-04-01T03:01:47;1.83;;;1.17;;
10277;SDS011;5184;51.376;7.148;2023-04-01T03:04:13;2.20;;;1.10;;
10277;SDS011;5184;51.376;7.148;2023-04-01T03:06:41;1.20;;;1.10;;
10277;SDS011;5184;51.376;7.148;2023-04-01T03:09:08;1.40;;;1.20;;
10277;SDS011;5184;51.376;7.148;2023-04-01T03:11:35;2.90;;;1.17;;
10277;SDS011;5184;51.376;7.148;2023-04-01T03:14:03;1.90;;;1.20;;
10277;SDS011;5184;51.376;7.148;2023-04-01T03:16:30;1.93;;;1.30;;
10277;SDS011;5184;51.376;7.148;2023-04-01T03:18:58;2.80;;;1.67;;
10277;SDS011;5184;51.376;7.148;2023-04-01T03:21:25;2.63;;;1.30;;
10277;SDS011;5184;51.376;7.148;2023-04-01T03:23:52;2.40;;;1.50;;
10277;SDS011;5184;51.376;7.148;2023-04-01T03:26:20;2.20;;;1.40;;
10277;SDS011;5184;51.376;7.148;2023-04-01T03:28:46;2.40;;;1.40;;
10277;SDS011;5184;51.376;7.148;2023-04-01T03:31:13;3.53;;;1.50;;
10277;SDS011;5184;51.376;7.148;2023-04-01T03:33:39;1.83;;;1.30;;
10277;SDS011;5184;51.376;7.148;2023-04-01T03:36:06;2.07;;;1.60;;
10277;SDS011;5184;51.376;7.148;2023-04-01T03:38:33;2.77;;;1.50;;
10277;SDS011;5184;51.376;7.148;2023-04-01T03:40:59;1.87;;;1.70;;
10277;SDS011;5184;51.376;7.148;2023-04-01T03:43:26;2.77;;;2.30;;
10277;SDS011;5184;51.376;7.148;2023-04-01T03:45:52;2.17;;;1.97;;
10277;SDS011;5184;51.376;7.148;2023-04-01T03:48:20;2.30;;;2.07;;
10277;SDS011;5184;51.376;7.148;2023-04-01T03:50:48;2.90;;;2.20;;
10277;SDS011;5184;51.376;7.148;2023-04-01T03:53:14;2.50;;;2.20;;
10277;SDS011;5184;51.376;7.148;2023-04-01T03:55:42;2.20;;;2.00;;
10277;SDS011;5184;51.376;7.148;2023-04-01T03:58:09;4.20;;;2.20;;
10277;SDS011;5184;51.376;7.148;2023-04-01T04:00:36;2.53;;;2.30;;
10277;SDS011;5184;51.376;7.148;2023-04-01T04:03:02;1.90;;;1.80;;
10277;SDS011;5184;51.376;7.148;2023-04-01T04:05:29;3.17;;;2.23;;
10277;SDS011;5184;51.376;7.148;2023-04-01T04:07:56;4.07;;;1.90;;
10277;SDS011;5184;51.376;7.148;2023-04-01T04:10:22;2.83;;;1.90;;
10277;SDS011;5184;51.376;7.148;2023-04-01T04:12:49;2.20;;;2.00;;
10277;SDS011;5184;51.376;7.148;2023-04-01T04:15:15;2.47;;;2.00;;
10277;SDS011;5184;51.376;7.148;2023-04-01T04:17:44;3.60;;;2.20;;
10277;SDS011;5184;51.376;7.148;2023-04-01T04:20:11;2.33;;;2.00;;
10277;SDS011;5184;51.376;7.148;2023-04-01T04:22:38;2.53;;;2.20;;
10277;SDS011;5184;51.376;7.148;2023-04-01T04:25:06;2.77;;;2.40;;
10277;SDS011;5184;51.376;7.148;2023-04-01T04:27:34;3.03;;;2.10;;
10277;SDS011;5184;51.376;7.148;2023-04-01T04:30:01;2.20;;;2.00;;
10277;SDS011;5184;51.376;7.148;2023-04-01T04:32:29;2.17;;;1.90;;
10277;SDS011;5184;51.376;7.148;2023-04-01T04:34:55;2.30;;;2.10;;
10277;SDS011;5184;51.376;7.148;2023-04-01T04:37:22;3.43;;;1.73;;
10277;SDS011;5184;51.376;7.148;2023-04-01T04:39:48;2.00;;;1.90;;
10277;SDS011;5184;51.376;7.148;2023-04-01T04:42:15;2.30;;;2.10;;
10277;SDS011;5184;51.376;7.148;2023-04-01T04:44:41;1.93;;;1.77;;
10277;SDS011;5184;51.376;7.148;2023-04-01T04:47:08;2.87;;;1.97;;
10277;SDS011;5184;51.376;7.148;2023-04-01T04:49:34;2.87;;;1.93;;
10277;SDS011;5184;51.376;7.148;2023-04-01T04:52:01;2.10;;;1.90;;
10277;SDS011;5184;51.376;7.148;2023-04-01T04:54:29;2.10;;;1.90;;
10277;SDS011;5184;51.376;7.148;2023-04-01T04:56:56;2.20;;;1.80;;
10277;SDS011;5184;51.376;7.148;2023-04-01T04:59:23;1.97;;;1.77;;
10277;SDS011;5184;51.376;7.148;2023-04-01T05:01:50;2.60;;;1.73;;
10277;SDS011;5184;51.376;7.148;2023-04-01T05:04:18;2.80;;;1.80;;
10277;SDS011;5184;51.376;7.148;2023-04-01T05:06:45;2.20;;;2.00;;
10277;SDS011;5184;51.376;7.148;2023-04-01T05:09:13;2.63;;;2.20;;
10277;SDS011;5184;51.376;7.148;2023-04-01T05:11:40;2.37;;;1.80;;
10277;SDS011;5184;51.376;7.148;2023-04-01T05:14:11;2.30;;;1.93;;
10277;SDS011;5184;51.376;7.148;2023-04-01T05:16:33;2.20;;;2.00;;
10277;SDS011;5184;51.376;7.148;2023-04-01T05:19:01;2.33;;;2.00;;
10277;SDS011;5184;51.376;7.148;2023-04-01T05:21:27;4.03;;;1.90;;
10277;SDS011;5184;51.376;7.148;2023-04-01T05:23:55;2.00;;;1.80;;
10277;SDS011;5184;51.376;7.148;2023-04-01T05:26:21;3.30;;;2.27;;
10277;SDS011;5184;51.376;7.148;2023-04-01T05:28:48;2.20;;;2.00;;
10277;SDS011;5184;51.376;7.148;2023-04-01T05:31:14;2.67;;;2.30;;
10277;SDS011;5184;51.376;7.148;2023-04-01T05:33:41;3.60;;;2.23;;
10277;SDS011;5184;51.376;7.148;2023-04-01T05:36:10;2.90;;;2.20;;
10277;SDS011;5184;51.376;7.148;2023-04-01T05:38:37;2.23;;;2.03;;
10277;SDS011;5184;51.376;7.148;2023-04-01T05:41:04;2.30;;;2.10;;
10277;SDS011;5184;51.376;7.148;2023-04-01T05:43:31;2.93;;;2.30;;
10277;SDS011;5184;51.376;7.148;2023-04-01T05:45:59;2.40;;;2.20;;
10277;SDS011;5184;51.376;7.148;2023-04-01T05:48:26;2.53;;;2.33;;
10277;SDS011;5184;51.376;7.148;2023-04-01T05:50:53;2.67;;;2.30;;
10277;SDS011;5184;51.376;7.148;2023-04-01T05:53:21;1.90;;;1.80;;
10277;SDS011;5184;51.376;7.148;2023-04-01T05:55:48;3.43;;;2.30;;
10277;SDS011;5184;51.376;7.148;2023-04-01T05:58:15;3.00;;;2.00;;
10277;SDS011;5184;51.376;7.148;2023-04-01T06:00:42;2.00;;;1.80;;
10277;SDS011;5184;51.376;7.148;2023-04-01T06:03:09;2.20;;;1.80;;
10277;SDS011;5184;51.376;7.148;2023-04-01T06:05:39;1.87;;;1.77;;
10277;SDS011;5184;51.376;7.148;2023-04-01T06:08:06;2.10;;;2.00;;
10277;SDS011;5184;51.376;7.148;2023-04-01T06:11:12;2.07;;;1.97;;
10277;SDS011;5184;51.376;7.148;2023-04-01T06:13:25;2.30;;;2.10;;
10277;SDS011;5184;51.376;7.148;2023-04-01T06:15:52;2.53;;;2.00;;
10277;SDS011;5184;51.376;7.148;2023-04-01T06:18:27;2.37;;;2.17;;
10277;SDS011;5184;51.376;7.148;2023-04-01T06:20:57;3.00;;;2.70;;
10277;SDS011;5184;51.376;7.148;2023-04-01T06:26:29;2.40;;;2.20;;
10277;SDS011;5184;51.376;7.148;2023-04-01T06:29:08;2.23;;;2.03;;
10277;SDS011;5184;51.376;7.148;2023-04-01T06:34:45;3.73;;;1.97;;
10277;SDS011;5184;51.376;7.148;2023-04-01T06:40:05;2.50;;;2.03;;
10277;SDS011;5184;51.376;7.148;2023-04-01T06:42:34;3.17;;;1.97;;
10277;SDS011;5184;51.376;7.148;2023-04-01T06:45:05;3.60;;;2.20;;
10277;SDS011;5184;51.376;7.148;2023-04-01T06:50:26;2.17;;;1.97;;
10277;SDS011;5184;51.376;7.148;2023-04-01T06:52:57;3.10;;;2.43;;
10277;SDS011;5184;51.376;7.148;2023-04-01T06:55:28;2.53;;;2.33;;
10277;SDS011;5184;51.376;7.148;2023-04-01T06:57:55;2.83;;;2.30;;
10277;SDS011;5184;51.376;7.148;2023-04-01T07:00:27;2.53;;;2.33;;
10277;SDS011;5184;51.376;7.148;2023-04-01T07:05:46;4.17;;;2.93;;
10277;SDS011;5184;51.376;7.148;2023-04-01T07:08:17;3.80;;;3.10;;
10277;SDS011;5184;51.376;7.148;2023-04-01T07:10:53;3.93;;;2.87;;
10277;SDS011;5184;51.376;7.148;2023-04-01T07:13:22;3.00;;;2.70;;
10277;SDS011;5184;51.376;7.148;2023-04-01T07:15:51;3.07;;;2.77;;
10277;SDS011;5184;51.376;7.148;2023-04-01T07:18:17;2.80;;;2.60;;
10277;SDS011;5184;51.376;7.148;2023-04-01T07:20:45;3.30;;;3.00;;
10277;SDS011;5184;51.376;7.148;2023-04-01T07:23:16;2.53;;;2.30;;
10277;SDS011;5184;51.376;7.148;2023-04-01T07:25:52;2.70;;;2.30;;
10277;SDS011;5184;51.376;7.148;2023-04-01T07:28:19;2.47;;;2.27;;
10277;SDS011;5184;51.376;7.148;2023-04-01T07:30:56;2.27;;;2.07;;
10277;SDS011;5184;51.376;7.148;2023-04-01T07:33:23;2.80;;;2.37;;
10277;SDS011;5184;51.376;7.148;2023-04-01T07:35:58;2.63;;;2.00;;
10277;SDS011;5184;51.376;7.148;2023-04-01T07:43:42;1.90;;;1.80;;
10277;SDS011;5184;51.376;7.148;2023-04-01T07:46:28;1.70;;;1.60;;
10277;SDS011;5184;51.376;7.148;2023-04-01T07:49:08;2.53;;;1.50;;
10277;SDS011;5184;51.376;7.148;2023-04-01T07:51:38;1.80;;;1.70;;
10277;SDS011;5184;51.376;7.148;2023-04-01T07:54:11;2.63;;;1.83;;
10277;SDS011;5184;51.376;7.148;2023-04-01T07:56:45;1.77;;;1.67;;
10277;SDS011;5184;51.376;7.148;2023-04-01T08:02:04;2.57;;;2.03;;
10277;SDS011;5184;51.376;7.148;2023-04-01T08:04:47;2.40;;;2.20;;
10277;SDS011;5184;51.376;7.148;2023-04-01T08:07:27;2.10;;;1.67;;
10277;SDS011;5184;51.376;7.148;2023-04-01T08:10:11;2.20;;;2.00;;
10277;SDS011;5184;51.376;7.148;2023-04-01T08:12:40;1.90;;;1.60;;
10277;SDS011;5184;51.376;7.148;2023-04-01T08:15:20;1.80;;;1.70;;
10277;SDS011;5184;51.376;7.148;2023-04-01T08:17:54;3.30;;;3.00;;
10277;SDS011;5184;51.376;7.148;2023-04-01T08:20:38;2.10;;;2.00;;
10277;SDS011;5184;51.376;7.148;2023-04-01T08:25:55;5.40;;;4.27;;
10277;SDS011;5184;51.376;7.148;2023-04-01T08:28:24;2.90;;;2.70;;
10277;SDS011;5184;51.376;7.148;2023-04-01T08:30:53;2.93;;;2.63;;
10277;SDS011;5184;51.376;7.148;2023-04-01T08:33:24;2.80;;;2.60;;
10277;SDS011;5184;51.376;7.148;2023-04-01T08:35:52;2.77;;;2.57;;
10277;SDS011;5184;51.376;7.148;2023-04-01T08:38:24;4.57;;;2.93;;
10277;SDS011;5184;51.376;7.148;2023-04-01T08:46:44;3.47;;;3.17;;
10277;SDS011;5184;51.376;7.148;2023-04-01T08:49:28;2.83;;;2.63;;
10277;SDS011;5184;51.376;7.148;2023-04-01T08:57:51;3.13;;;2.83;;
10277;SDS011;5184;51.376;7.148;2023-04-01T09:00:15;3.27;;;2.97;;
10277;SDS011;5184;51.376;7.148;2023-04-01T09:04:05;2.83;;;2.53;;
10277;SDS011;5184;51.376;7.148;2023-04-01T09:11:33;2.77;;;2.57;;
10277;SDS011;5184;51.376;7.148;2023-04-01T09:14:22;3.13;;;2.83;;
10277;SDS011;5184;51.376;7.148;2023-04-01T09:16:51;3.00;;;2.70;;
10277;SDS011;5184;51.376;7.148;2023-04-01T09:19:47;3.70;;;3.30;;
10277;SDS011;5184;51.376;7.148;2023-04-01T09:25:45;3.70;;;3.40;;
10277;SDS011;5184;51.376;7.148;2023-04-01T09:27:57;4.43;;;4.03;;
10277;SDS011;5184;51.376;7.148;2023-04-01T09:33:09;6.17;;;5.03;;
10277;SDS011;5184;51.376;7.148;2023-04-01T09:38:44;6.40;;;5.00;;
10277;SDS011;5184;51.376;7.148;2023-04-01T09:41:27;5.87;;;5.27;;
10277;SDS011;5184;51.376;7.148;2023-04-01T09:44:15;5.73;;;5.13;;
10277;SDS011;5184;51.376;7.148;2023-04-01T09:47:05;8.60;;;5.50;;
10277;SDS011;5184;51.376;7.148;2023-04-01T09:49:38;6.37;;;5.73;;
10277;SDS011;5184;51.376;7.148;2023-04-01T09:58:00;7.03;;;6.13;;
10277;SDS011;5184;51.376;7.148;2023-04-01T10:00:36;7.50;;;6.70;;
10277;SDS011;5184;51.376;7.148;2023-04-01T10:06:58;7.50;;;6.70;;
10277;SDS011;5184;51.376;7.148;2023-04-01T10:08:49;7.47;;;6.57;;
10277;SDS011;5184;51.376;7.148;2023-04-01T10:11:55;7.13;;;6.40;;
10277;SDS011;5184;51.376;7.148;2023-04-01T10:14:46;7.33;;;6.63;;
10277;SDS011;5184;51.376;7.148;2023-04-01T10:17:00;7.83;;;6.70;;
10277;SDS011;5184;51.376;7.148;2023-04-01T10:19:36;9.33;;;7.83;;
10277;SDS011;5184;51.376;7.148;2023-04-01T10:21:59;8.07;;;6.97;;
10277;SDS011;5184;51.376;7.148;2023-04-01T10:27:25;8.37;;;6.77;;
10277;SDS011;5184;51.376;7.148;2023-04-01T10:29:58;7.73;;;6.93;;
10277;SDS011;5184;51.376;7.148;2023-04-01T10:40:44;9.07;;;6.97;;
10277;SDS011;5184;51.376;7.148;2023-04-01T10:43:24;8.03;;;6.50;;
10277;SDS011;5184;51.376;7.148;2023-04-01T10:46:13;7.80;;;7.03;;
10277;SDS011;5184;51.376;7.148;2023-04-01T10:51:20;8.37;;;6.77;;
10277;SDS011;5184;51.376;7.148;2023-04-01T10:53:58;7.23;;;6.40;;
10277;SDS011;5184;51.376;7.148;2023-04-01T10:56:33;7.50;;;6.03;;
10277;SDS011;5184;51.376;7.148;2023-04-01T11:01:54;7.13;;;5.57;;
10277;SDS011;5184;51.376;7.148;2023-04-01T11:04:44;6.37;;;5.33;;
10277;SDS011;5184;51.376;7.148;2023-04-01T11:08:24;5.87;;;5.30;;
10277;SDS011;5184;51.376;7.148;2023-04-01T11:10:54;5.53;;;5.00;;
10277;SDS011;5184;51.376;7.148;2023-04-01T11:13:06;5.60;;;5.10;;
10277;SDS011;5184;51.376;7.148;2023-04-01T11:15:35;5.93;;;5.33;;
10277;SDS011;5184;51.376;7.148;2023-04-01T11:21:36;5.70;;;5.10;;
10277;SDS011;5184;51.376;7.148;2023-04-01T11:23:59;5.40;;;4.90;;
10277;SDS011;5184;51.376;7.148;2023-04-01T11:29:53;5.77;;;5.03;;
10277;SDS011;5184;51.376;7.148;2023-04-01T11:32:14;5.53;;;5.03;;
10277;SDS011;5184;51.376;7.148;2023-04-01T11:34:43;5.73;;;5.17;;
10277;SDS011;5184;51.376;7.148;2023-04-01T11:37:16;6.43;;;5.83;;
10277;SDS011;5184;51.376;7.148;2023-04-01T11:40:05;6.23;;;5.13;;
10277;SDS011;5184;51.376;7.148;2023-04-01T11:42:54;5.80;;;5.20;;
10277;SDS011;5184;51.376;7.148;2023-04-01T11:48:37;5.50;;;5.00;;
10277;SDS011;5184;51.376;7.148;2023-04-01T11:50:58;5.07;;;4.57;;
10277;SDS011;5184;51.376;7.148;2023-04-01T11:53:35;5.40;;;4.60;;
10277;SDS011;5184;51.376;7.148;2023-04-01T11:58:38;6.23;;;4.77;;
10277;SDS011;5184;51.376;7.148;2023-04-01T12:03:59;6.03;;;4.93;;
10277;SDS011;5184;51.376;7.148;2023-04-01T12:06:37;5.50;;;4.97;;
10277;SDS011;5184;51.376;7.148;2023-04-01T12:09:12;5.87;;;5.33;;
10277;SDS011;5184;51.376;7.148;2023-04-01T12:11:45;6.90;;;5.40;;
10277;SDS011;5184;51.376;7.148;2023-04-01T12:14:31;6.17;;;5.33;;
10277;SDS011;5184;51.376;7.148;2023-04-01T12:17:10;6.70;;;6.00;;
10277;SDS011;5184;51.376;7.148;2023-04-01T12:19:56;6.33;;;5.73;;
10277;SDS011;5184;51.376;7.148;2023-04-01T12:22:45;6.37;;;5.77;;
10277;SDS011;5184;51.376;7.148;2023-04-01T12:27:53;5.37;;;4.87;;
10277;SDS011;5184;51.376;7.148;2023-04-01T12:30:26;5.10;;;4.63;;
10277;SDS011;5184;51.376;7.148;2023-04-01T12:32:59;5.27;;;4.77;;
10277;SDS011;5184;51.376;7.148;2023-04-01T12:35:41;4.70;;;4.00;;
10277;SDS011;5184;51.376;7.148;2023-04-01T12:38:15;5.93;;;4.60;;
10277;SDS011;5184;51.376;7.148;2023-04-01T12:41:02;4.50;;;4.10;;
10277;SDS011;5184;51.376;7.148;2023-04-01T12:43:45;4.77;;;4.37;;
10277;SDS011;5184;51.376;7.148;2023-04-01T12:46:24;5.07;;;4.57;;
10277;SDS011;5184;51.376;7.148;2023-04-01T12:48:59;5.33;;;4.83;;
10277;SDS011;5184;51.376;7.148;2023-04-01T12:51:46;5.40;;;4.90;;
10277;SDS011;5184;51.376;7.148;2023-04-01T12:54:18;5.60;;;5.10;;
10277;SDS011;5184;51.376;7.148;2023-04-01T13:02:30;7.20;;;6.27;;
10277;SDS011;5184;51.376;7.148;2023-04-01T13:05:10;9.13;;;7.30;;
10277;SDS011;5184;51.376;7.148;2023-04-01T13:07:39;7.67;;;6.97;;
10277;SDS011;5184;51.376;7.148;2023-04-01T13:10:07;9.03;;;8.00;;
10277;SDS011;5184;51.376;7.148;2023-04-01T13:12:38;8.67;;;7.30;;
10277;SDS011;5184;51.376;7.148;2023-04-01T13:15:05;9.17;;;8.20;;
10277;SDS011;5184;51.376;7.148;2023-04-01T13:17:36;9.03;;;8.00;;
10277;SDS011;5184;51.376;7.148;2023-04-01T13:21:14;8.93;;;8.03;;
10277;SDS011;5184;51.376;7.148;2023-04-01T13:22:56;8.40;;;6.63;;
10277;SDS011;5184;51.376;7.148;2023-04-01T13:28:01;7.33;;;6.63;;
10277;SDS011;5184;51.376;7.148;2023-04-01T13:33:24;7.83;;;6.30;;
10277;SDS011;5184;51.376;7.148;2023-04-01T13:41:24;7.10;;;6.23;;
10277;SDS011;5184;51.376;7.148;2023-04-01T13:46:54;6.40;;;5.67;;
10277;SDS011;5184;51.376;7.148;2023-04-01T13:52:38;6.97;;;6.00;;
10277;SDS011;5184;51.376;7.148;2023-04-01T13:55:26;6.60;;;5.77;;
10277;SDS011;5184;51.376;7.148;2023-04-01T14:00:53;7.03;;;5.60;;
10277;SDS011;5184;51.376;7.148;2023-04-01T14:04:29;6.23;;;5.60;;
10277;SDS011;5184;51.376;7.148;2023-04-01T14:06:17;5.93;;;5.33;;
10277;SDS011;5184;51.376;7.148;2023-04-01T14:08:51;6.23;;;5.43;;
10277;SDS011;5184;51.376;7.148;2023-04-01T14:11:26;6.70;;;5.70;;
10277;SDS011;5184;51.376;7.148;2023-04-01T14:14:04;5.90;;;5.30;;
10277;SDS011;5184;51.376;7.148;2023-04-01T14:16:47;6.17;;;5.33;;
10277;SDS011;5184;51.376;7.148;2023-04-01T14:19:03;6.93;;;5.93;;
10277;SDS011;5184;51.376;7.148;2023-04-01T14:21:41;6.83;;;5.60;;
10277;SDS011;5184;51.376;7.148;2023-04-01T14:25:21;6.53;;;5.90;;
10277;SDS011;5184;51.376;7.148;2023-04-01T14:27:02;7.60;;;5.80;;
10277;SDS011;5184;51.376;7.148;2023-04-01T14:29:47;5.80;;;5.03;;
10277;SDS011;5184;51.376;7.148;2023-04-01T14:32:20;6.30;;;5.53;;
10277;SDS011;5184;51.376;7.148;2023-04-01T14:37:34;5.27;;;4.77;;
10277;SDS011;5184;51.376;7.148;2023-04-01T14:42:45;5.60;;;4.70;;
10277;SDS011;5184;51.376;7.148;2023-04-01T14:45:31;5.20;;;4.70;;
10277;SDS011;5184;51.376;7.148;2023-04-01T14:48:17;5.70;;;4.93;;
10277;SDS011;5184;51.376;7.148;2023-04-01T14:50:46;5.33;;;4.70;;
10277;SDS011;5184;51.376;7.148;2023-04-01T14:53:23;5.23;;;4.73;;
10277;SDS011;5184;51.376;7.148;2023-04-01T14:55:58;5.50;;;4.80;;
10277;SDS011;5184;51.376;7.148;2023-04-01T14:58:25;5.60;;;4.97;;
10277;SDS011;5184;51.376;7.148;2023-04-01T15:00:58;5.30;;;4.57;;
10277;SDS011;5184;51.376;7.148;2023-04-01T15:11:23;5.93;;;5.33;;
10277;SDS011;5184;51.376;7.148;2023-04-01T15:16:41;6.13;;;5.03;;
10277;SDS011;5184;51.376;7.148;2023-04-01T15:19:15;6.60;;;5.83;;
10277;SDS011;5184;51.376;7.148;2023-04-01T15:22:01;5.63;;;5.10;;
10277;SDS011;5184;51.376;7.148;2023-04-01T15:27:15;5.93;;;5.27;;
10277;SDS011;5184;51.376;7.148;2023-04-01T15:32:39;7.37;;;6.60;;
10277;SDS011;5184;51.376;7.148;2023-04-01T15:38:05;6.83;;;6.13;;
10277;SDS011;5184;51.376;7.148;2023-04-01T15:40:49;8.13;;;6.40;;
10277;SDS011;5184;51.376;7.148;2023-04-01T15:43:20;8.13;;;7.27;;
10277;SDS011;5184;51.376;7.148;2023-04-01T15:48:24;7.97;;;7.13;;
10277;SDS011;5184;51.376;7.148;2023-04-01T15:50:58;6.47;;;5.47;;
10277;SDS011;5184;51.376;7.148;2023-04-01T15:53:42;5.60;;;5.10;;
10277;SDS011;5184;51.376;7.148;2023-04-01T15:56:12;5.93;;;5.23;;
10277;SDS011;5184;51.376;7.148;2023-04-01T16:01:34;5.07;;;4.30;;
10277;SDS011;5184;51.376;7.148;2023-04-01T16:04:11;4.50;;;4.10;;
10277;SDS011;5184;51.376;7.148;2023-04-01T16:06:45;4.43;;;4.03;;
10277;SDS011;5184;51.376;7.148;2023-04-01T16:09:15;4.23;;;3.83;;
10277;SDS011;5184;51.376;7.148;2023-04-01T16:11:53;4.33;;;3.93;;
10277;SDS011;5184;51.376;7.148;2023-04-01T16:15:29;4.00;;;3.60;;
10277;SDS011;5184;51.376;7.148;2023-04-01T16:17:12;3.70;;;3.40;;
10277;SDS011;5184;51.376;7.148;2023-04-01T16:19:44;4.03;;;3.20;;
10277;SDS011;5184;51.376;7.148;2023-04-01T16:22:13;3.53;;;3.23;;
10277;SDS011;5184;51.376;7.148;2023-04-01T16:24:45;3.53;;;3.23;;
10277;SDS011;5184;51.376;7.148;2023-04-01T16:27:28;3.57;;;3.27;;
10277;SDS011;5184;51.376;7.148;2023-04-01T16:29:56;4.27;;;3.20;;
10277;SDS011;5184;51.376;7.148;2023-04-01T16:35:03;3.40;;;3.00;;
10277;SDS011;5184;51.376;7.148;2023-04-01T16:37:29;5.73;;;4.63;;
10277;SDS011;5184;51.376;7.148;2023-04-01T16:42:51;5.53;;;5.03;;
10277;SDS011;5184;51.376;7.148;2023-04-01T16:45:19;5.90;;;5.30;;
10277;SDS011;5184;51.376;7.148;2023-04-01T16:47:58;6.00;;;5.50;;
10277;SDS011;5184;51.376;7.148;2023-04-01T16:50:39;6.50;;;5.90;;
10277;SDS011;5184;51.376;7.148;2023-04-01T16:52:58;7.67;;;6.97;;
10277;SDS011;5184;51.376;7.148;2023-04-01T16:55:34;7.70;;;6.97;;
10277;SDS011;5184;51.376;7.148;2023-04-01T16:58:18;8.80;;;8.00;;
10277;SDS011;5184;51.376;7.148;2023-04-01T17:00:41;8.63;;;7.77;;
10277;SDS011;5184;51.376;7.148;2023-04-01T17:03:25;9.03;;;8.23;;
10277;SDS011;5184;51.376;7.148;2023-04-01T17:08:30;10.10;;;9.10;;
10277;SDS011;5184;51.376;7.148;2023-04-01T17:10:56;9.17;;;8.33;;
10277;SDS011;5184;51.376;7.148;2023-04-01T17:13:29;8.70;;;7.90;;
10277;SDS011;5184;51.376;7.148;2023-04-01T17:16:03;10.53;;;9.43;;
10277;SDS011;5184;51.376;7.148;2023-04-01T17:18:39;9.60;;;8.57;;
10277;SDS011;5184;51.376;7.148;2023-04-01T17:21:09;9.50;;;8.60;;
10277;SDS011;5184;51.376;7.148;2023-04-01T17:26:20;7.37;;;6.67;;
10277;SDS011;5184;51.376;7.148;2023-04-01T17:28:50;8.53;;;7.73;;
10277;SDS011;5184;51.376;7.148;2023-04-01T17:31:21;8.23;;;7.43;;
10277;SDS011;5184;51.376;7.148;2023-04-01T17:33:53;7.70;;;7.00;;
10277;SDS011;5184;51.376;7.148;2023-04-01T17:36:21;8.70;;;7.47;;
10277;SDS011;5184;51.376;7.148;2023-04-01T17:39:00;7.00;;;6.20;;
10277;SDS011;5184;51.376;7.148;2023-04-01T17:41:48;7.33;;;6.63;;
10277;SDS011;5184;51.376;7.148;2023-04-01T17:44:17;7.27;;;6.57;;
10277;SDS011;5184;51.376;7.148;2023-04-01T17:46:56;7.30;;;6.57;;
10277;SDS011;5184;51.376;7.148;2023-04-01T17:49:30;8.13;;;6.80;;
10277;SDS011;5184;51.376;7.148;2023-04-01T17:53:07;8.13;;;6.90;;
10277;SDS011;5184;51.376;7.148;2023-04-01T17:54:46;8.00;;;7.20;;
10277;SDS011;5184;51.376;7.148;2023-04-01T18:00:14;8.20;;;7.40;;
10277;SDS011;5184;51.376;7.148;2023-04-01T18:05:24;9.20;;;8.30;;
10277;SDS011;5184;51.376;7.148;2023-04-01T18:07:52;10.53;;;9.47;;
10277;SDS011;5184;51.376;7.148;2023-04-01T18:10:54;10.20;;;9.20;;
10277;SDS011;5184;51.376;7.148;2023-04-01T18:13:16;10.53;;;9.43;;
10277;SDS011;5184;51.376;7.148;2023-04-01T18:16:34;10.80;;;9.70;;
10277;SDS011;5184;51.376;7.148;2023-04-01T18:18:50;11.10;;;9.97;;
10277;SDS011;5184;51.376;7.148;2023-04-01T18:21:23;12.73;;;11.47;;
10277;SDS011;5184;51.376;7.148;2023-04-01T18:23:56;12.53;;;11.33;;